createdAt,value
2022-11-29T00:00:48.261Z,31.95
2022-11-29T00:03:19.929Z,31.98
2022-11-29T00:05:55.578Z,31.38
2022-11-29T00:08:31.267Z,27.63
2022-11-29T00:11:09.074Z,31.20
2022-11-29T00:13:40.684Z,27.88
2022-11-29T00:16:12.579Z,29.77
2022-11-29T00:18:44.147Z,30.60
2022-11-29T00:21:15.737Z,29.83
2022-11-29T00:23:47.319Z,29.58
2022-11-29T00:26:18.992Z,30.58
2022-11-29T00:28:50.628Z,30.27
2022-11-29T00:31:30.339Z,28.08
2022-11-29T00:34:04.985Z,26.77
2022-11-29T00:36:36.608Z,25.85
2022-11-29T00:39:11.958Z,27.45
2022-11-29T00:41:46.304Z,28.45
2022-11-29T00:44:20.447Z,29.55
2022-11-29T00:46:52.494Z,27.98
2022-11-29T00:49:24.134Z,28.58
2022-11-29T00:51:55.676Z,26.90
2022-11-29T00:54:27.292Z,29.23
2022-11-29T00:56:58.937Z,28.20
2022-11-29T00:59:30.524Z,28.13
2022-11-29T01:02:02.177Z,29.83
2022-11-29T01:04:34.259Z,26.00
2022-11-29T01:07:06.208Z,26.10
2022-11-29T01:09:38.031Z,27.52
2022-11-29T01:12:12.515Z,29.50
2022-11-29T01:14:47.328Z,26.38
2022-11-29T01:19:51.068Z,30.63
2022-11-29T01:22:25.632Z,27.95
2022-11-29T01:24:57.373Z,28.23
2022-11-29T01:27:29.727Z,25.20
2022-11-29T01:30:05.066Z,27.75
2022-11-29T01:32:37.088Z,29.98
2022-11-29T01:35:09.183Z,29.38
2022-11-29T01:37:40.771Z,26.88
2022-11-29T01:40:13.878Z,27.98
2022-11-29T01:42:45.464Z,25.90
2022-11-29T01:45:26.798Z,30.05
2022-11-29T01:48:05.013Z,33.45
2022-11-29T01:50:38.825Z,28.05
2022-11-29T01:53:15.387Z,29.05
2022-11-29T01:55:54.256Z,30.63
2022-11-29T01:58:30.283Z,30.80
2022-11-29T02:01:04.561Z,31.42
2022-11-29T02:03:36.347Z,31.33
2022-11-29T02:06:08.179Z,33.22
2022-11-29T02:08:42.497Z,30.95
2022-11-29T02:11:34.681Z,31.63
2022-11-29T02:14:18.199Z,31.05
2022-11-29T02:17:28.230Z,31.83
2022-11-29T02:20:18.221Z,30.25
2022-11-29T02:23:10.676Z,34.65
2022-11-29T02:26:03.308Z,31.92
2022-11-29T02:28:48.311Z,33.50
2022-11-29T02:34:16.304Z,29.60
2022-11-29T02:36:58.272Z,29.83
2022-11-29T02:39:51.351Z,31.80
2022-11-29T02:42:55.713Z,31.25
2022-11-29T02:45:38.498Z,30.90
2022-11-29T02:48:38.179Z,35.53
2022-11-29T02:51:39.224Z,31.58
2022-11-29T02:54:25.764Z,32.97
2022-11-29T02:57:21.508Z,32.50
2022-11-29T03:00:08.661Z,31.52
2022-11-29T03:02:53.126Z,32.22
2022-11-29T03:05:33.396Z,29.80
2022-11-29T03:08:30.454Z,31.27
2022-11-29T03:11:12.805Z,32.50
2022-11-29T03:14:13.016Z,28.63
2022-11-29T03:17:22.313Z,31.92
2022-11-29T03:20:05.953Z,32.92
2022-11-29T03:22:55.467Z,33.83
2022-11-29T03:25:43.103Z,30.23
2022-11-29T03:28:21.776Z,31.33
2022-11-29T03:31:18.136Z,32.97
2022-11-29T03:34:04.957Z,32.83
2022-11-29T03:36:56.151Z,35.03
2022-11-29T03:39:45.230Z,32.30
2022-11-29T03:42:58.923Z,32.83
2022-11-29T03:45:58.496Z,32.78
2022-11-29T03:48:36.536Z,33.15
2022-11-29T03:51:16.376Z,33.05
2022-11-29T03:53:54.324Z,33.25
2022-11-29T03:56:36.407Z,31.77
2022-11-29T03:59:23.157Z,31.60
2022-11-29T04:05:44.340Z,32.45
2022-11-29T04:08:40.457Z,35.40
2022-11-29T04:11:55.242Z,33.50
2022-11-29T04:14:38.761Z,32.17
2022-11-29T04:17:44.083Z,32.83
2022-11-29T04:20:27.809Z,31.63
2022-11-29T04:23:26.605Z,33.03
2022-11-29T04:26:22.720Z,32.53
2022-11-29T04:29:48.872Z,37.33
2022-11-29T04:32:29.457Z,34.53
2022-11-29T04:35:22.496Z,32.95
2022-11-29T04:38:08.962Z,34.10
2022-11-29T04:41:02.431Z,37.20
2022-11-29T04:44:07.133Z,35.30
2022-11-29T04:47:15.274Z,37.45
2022-11-29T04:50:18.753Z,39.10
2022-11-29T04:53:25.539Z,37.35
2022-11-29T04:56:14.557Z,36.53
2022-11-29T04:59:02.265Z,35.58
2022-11-29T05:01:58.361Z,38.50
2022-11-29T05:04:33.677Z,39.17
2022-11-29T05:07:33.861Z,32.58
2022-11-29T05:10:20.754Z,36.83
2022-11-29T05:13:19.772Z,36.88
2022-11-29T05:16:13.749Z,36.92
2022-11-29T05:19:11.901Z,34.10
2022-11-29T05:22:20.549Z,36.75
2022-11-29T05:25:00.612Z,41.10
2022-11-29T05:27:48.199Z,36.15
2022-11-29T05:30:22.635Z,40.30
2022-11-29T05:33:20.695Z,36.47
2022-11-29T05:35:54.727Z,35.85
2022-11-29T05:38:34.129Z,38.40
2022-11-29T05:41:40.792Z,38.15
2022-11-29T05:44:56.972Z,42.00
2022-11-29T05:48:07.171Z,38.97
2022-11-29T05:50:52.474Z,39.33
2022-11-29T05:56:40.571Z,45.33
2022-11-29T05:59:27.236Z,41.10
2022-11-29T06:02:13.888Z,38.42
2022-11-29T06:04:57.554Z,41.42
2022-11-29T06:07:44.906Z,41.08
2022-11-29T06:10:19.815Z,40.67
2022-11-29T06:16:02.925Z,39.42
2022-11-29T06:18:55.544Z,40.25
2022-11-29T06:21:41.740Z,42.45
2022-11-29T06:24:50.884Z,38.67
2022-11-29T06:27:59.954Z,40.30
2022-11-29T06:31:02.080Z,42.72
2022-11-29T06:34:03.869Z,42.10
2022-11-29T06:37:02.578Z,45.08
2022-11-29T06:39:35.179Z,44.75
2022-11-29T06:42:09.918Z,43.28
2022-11-29T06:44:42.879Z,48.47
2022-11-29T06:47:33.142Z,47.13
2022-11-29T06:50:49.301Z,44.05
2022-11-29T06:53:41.521Z,47.10
2022-11-29T06:56:52.085Z,41.83
2022-11-29T07:00:00.560Z,43.97
2022-11-29T07:02:52.120Z,44.75
2022-11-29T07:05:34.698Z,42.92
2022-11-29T07:08:23.017Z,48.90
2022-11-29T07:10:55.908Z,47.25
2022-11-29T07:13:31.411Z,46.85
2022-11-29T07:16:30.361Z,42.10
2022-11-29T07:19:26.209Z,43.30
2022-11-29T07:22:30.245Z,43.35
2022-11-29T07:25:17.014Z,44.47
2022-11-29T07:28:22.635Z,46.15
2022-11-29T07:31:33.538Z,41.63
2022-11-29T07:34:15.018Z,50.97
2022-11-29T07:37:17.364Z,45.40
2022-11-29T07:40:18.334Z,45.83
2022-11-29T07:43:23.040Z,51.05
2022-11-29T07:45:57.064Z,46.63
2022-11-29T07:48:31.433Z,44.42
2022-11-29T07:51:03.429Z,44.03
2022-11-29T07:53:42.923Z,41.05
2022-11-29T07:56:16.411Z,44.42
2022-11-29T07:58:48.175Z,46.38
2022-11-29T08:01:19.967Z,43.50
2022-11-29T08:04:20.483Z,43.05
2022-11-29T08:06:58.120Z,46.00
2022-11-29T08:09:29.716Z,41.42
2022-11-29T08:12:01.428Z,42.78
2022-11-29T08:14:34.151Z,45.08
2022-11-29T08:17:06.096Z,45.45
2022-11-29T08:19:37.732Z,43.67
2022-11-29T08:22:09.308Z,48.47
2022-11-29T08:24:43.361Z,45.95
2022-11-29T08:27:18.142Z,44.22
2022-11-29T08:29:49.815Z,42.92
2022-11-29T08:32:21.398Z,43.65
2022-11-29T08:34:53.061Z,46.67
2022-11-29T08:37:24.623Z,48.58
2022-11-29T08:39:59.284Z,46.92
2022-11-29T08:42:30.902Z,42.80
2022-11-29T08:45:02.576Z,39.17
2022-11-29T08:47:42.202Z,47.65
2022-11-29T08:50:16.624Z,46.58
2022-11-29T08:53:10.006Z,40.40
2022-11-29T08:55:46.688Z,43.78
2022-11-29T08:58:18.482Z,44.47
2022-11-29T09:03:59.584Z,44.70
2022-11-29T09:06:40.748Z,38.30
2022-11-29T09:09:23.857Z,44.40
2022-11-29T09:11:58.585Z,45.03
2022-11-29T09:14:30.825Z,40.78
2022-11-29T09:17:07.090Z,42.42
2022-11-29T09:19:38.719Z,48.45
2022-11-29T09:22:10.314Z,42.50
2022-11-29T09:24:46.584Z,40.70
2022-11-29T09:27:21.353Z,47.35
2022-11-29T09:29:52.984Z,43.55
2022-11-29T09:32:26.925Z,39.67
2022-11-29T09:35:02.885Z,44.42
2022-11-29T09:37:37.394Z,40.50
2022-11-29T09:40:18.143Z,39.85
2022-11-29T09:43:21.205Z,45.85
2022-11-29T09:46:24.747Z,38.47
2022-11-29T09:49:27.044Z,40.08
2022-11-29T09:52:21.343Z,46.92
2022-11-29T09:55:12.208Z,41.80
2022-11-29T09:57:44.363Z,42.20
2022-11-29T10:00:19.956Z,38.13
2022-11-29T10:03:02.678Z,41.90
2022-11-29T10:05:51.584Z,36.80
2022-11-29T10:08:35.473Z,37.35
2022-11-29T10:11:18.956Z,39.35
2022-11-29T10:14:12.057Z,38.97
2022-11-29T10:16:58.718Z,39.28
2022-11-29T10:20:04.635Z,41.40
2022-11-29T10:22:40.907Z,36.80
2022-11-29T10:25:24.206Z,39.80
2022-11-29T10:27:55.949Z,39.60
2022-11-29T10:30:29.440Z,37.55
2022-11-29T10:33:02.664Z,37.20
2022-11-29T10:35:34.447Z,40.67
2022-11-29T10:38:29.743Z,36.90
2022-11-29T10:41:22.394Z,41.53
2022-11-29T10:46:37.078Z,39.90
2022-11-29T10:49:28.763Z,39.60
2022-11-29T10:52:00.770Z,39.40
2022-11-29T10:54:42.830Z,34.88
2022-11-29T10:57:20.445Z,37.15
2022-11-29T11:00:06.934Z,38.28
2022-11-29T11:02:42.893Z,35.10
2022-11-29T11:05:18.947Z,34.53
2022-11-29T11:07:59.310Z,36.05
2022-11-29T11:10:31.372Z,33.67
2022-11-29T11:13:20.535Z,35.15
2022-11-29T11:16:24.201Z,38.25
2022-11-29T11:18:55.904Z,35.60
2022-11-29T11:21:29.334Z,32.60
2022-11-29T11:24:03.288Z,34.28
2022-11-29T11:26:44.084Z,33.23
2022-11-29T11:29:22.303Z,34.22
2022-11-29T11:31:59.676Z,35.60
2022-11-29T11:34:38.816Z,33.42
2022-11-29T11:37:20.883Z,32.67
2022-11-29T11:40:00.282Z,31.92
2022-11-29T11:42:38.297Z,29.70
2022-11-29T11:45:15.743Z,34.05
2022-11-29T11:47:56.710Z,34.65
2022-11-29T11:50:39.344Z,30.92
2022-11-29T11:53:36.730Z,32.25
2022-11-29T11:56:13.141Z,32.95
2022-11-29T11:58:52.649Z,32.28
2022-11-29T12:01:33.543Z,37.17
2022-11-29T12:04:22.065Z,33.88
2022-11-29T12:06:58.581Z,30.90
2022-11-29T12:09:48.323Z,35.75
2022-11-29T12:12:32.060Z,33.15
2022-11-29T12:15:29.202Z,36.33
2022-11-29T12:18:17.153Z,33.70
2022-11-29T12:20:57.033Z,34.92
2022-11-29T12:23:40.784Z,30.92
2022-11-29T12:26:54.892Z,29.83
2022-11-29T12:29:22.276Z,36.58
2022-11-29T12:32:31.467Z,34.10
2022-11-29T12:35:37.102Z,32.78
2022-11-29T12:38:48.502Z,33.42
2022-11-29T12:41:36.948Z,34.33
2022-11-29T12:44:22.604Z,38.85
2022-11-29T12:47:35.252Z,35.55
2022-11-29T12:50:30.095Z,35.53
2022-11-29T12:53:01.620Z,37.45
2022-11-29T12:55:53.505Z,37.28
2022-11-29T12:58:41.317Z,36.22
2022-11-29T13:01:20.287Z,33.80
2022-11-29T13:06:56.246Z,35.95
2022-11-29T13:10:05.539Z,37.55
2022-11-29T13:12:58.394Z,37.83
2022-11-29T13:16:01.840Z,37.50
2022-11-29T13:18:54.775Z,35.45
2022-11-29T13:22:04.342Z,36.22
2022-11-29T13:24:44.316Z,38.65
2022-11-29T13:27:23.250Z,38.50
2022-11-29T13:29:56.297Z,37.35
2022-11-29T13:32:40.122Z,39.47
2022-11-29T13:35:14.642Z,35.20
2022-11-29T13:38:03.781Z,34.88
2022-11-29T13:40:50.083Z,38.88
2022-11-29T13:43:42.391Z,39.28
2022-11-29T13:46:17.087Z,41.50
2022-11-29T13:48:54.119Z,35.40
2022-11-29T13:51:38.032Z,39.42
2022-11-29T13:54:30.780Z,42.35
2022-11-29T13:57:11.494Z,36.97
2022-11-29T13:59:49.433Z,40.97
2022-11-29T14:02:39.308Z,42.30
2022-11-29T14:05:44.608Z,37.53
2022-11-29T14:12:04.748Z,36.83
2022-11-29T14:14:51.924Z,35.70
2022-11-29T14:17:34.405Z,38.78
2022-11-29T14:20:28.550Z,38.80
2022-11-29T14:23:19.222Z,36.40
2022-11-29T14:25:56.871Z,37.22
2022-11-29T14:28:36.099Z,38.75
2022-11-29T14:31:11.496Z,42.13
2022-11-29T14:33:58.062Z,38.47
2022-11-29T14:36:52.692Z,40.65
2022-11-29T14:39:29.370Z,44.72
2022-11-29T14:42:14.666Z,46.80
2022-11-29T14:45:01.024Z,37.85
2022-11-29T14:47:48.550Z,38.97
2022-11-29T14:50:39.934Z,39.95
2022-11-29T14:53:35.363Z,44.35
2022-11-29T14:56:28.925Z,39.60
2022-11-29T14:59:41.076Z,37.78
2022-11-29T15:02:29.574Z,43.72
2022-11-29T15:05:18.888Z,42.63
2022-11-29T15:08:14.210Z,43.17
2022-11-29T15:10:59.854Z,42.00
2022-11-29T15:13:34.660Z,42.95
2022-11-29T15:16:14.216Z,46.00
2022-11-29T15:19:04.351Z,38.67
2022-11-29T15:22:15.829Z,40.17
2022-11-29T15:24:51.646Z,36.92
2022-11-29T15:27:24.056Z,36.53
2022-11-29T15:29:56.045Z,35.20
2022-11-29T15:32:31.064Z,36.95
2022-11-29T15:35:08.430Z,36.28
2022-11-29T15:37:45.632Z,36.53
2022-11-29T15:40:23.006Z,36.22
2022-11-29T15:43:36.343Z,41.75
2022-11-29T15:46:19.554Z,39.92
2022-11-29T15:49:03.260Z,40.45
2022-11-29T15:51:38.463Z,41.13
2022-11-29T15:54:44.949Z,40.80
2022-11-29T15:57:20.844Z,40.33
2022-11-29T16:00:12.675Z,38.90
2022-11-29T16:03:01.559Z,39.10
2022-11-29T16:05:37.856Z,39.47
2022-11-29T16:08:19.332Z,39.05
2022-11-29T16:10:54.645Z,36.60
2022-11-29T16:13:37.102Z,37.63
2022-11-29T16:16:22.805Z,40.60
2022-11-29T16:18:54.547Z,38.60
2022-11-29T16:21:29.365Z,42.30
2022-11-29T16:29:49.352Z,36.17
2022-11-29T16:32:31.905Z,38.53
2022-11-29T16:35:21.537Z,36.10
2022-11-29T16:37:54.655Z,38.40
2022-11-29T16:40:30.193Z,40.60
2022-11-29T16:43:04.955Z,39.08
2022-11-29T16:45:39.537Z,35.33
2022-11-29T16:48:28.896Z,39.25
2022-11-29T16:51:09.637Z,42.20
2022-11-29T16:53:43.241Z,39.97
2022-11-29T16:56:17.722Z,41.60
2022-11-29T16:59:17.242Z,37.13
2022-11-29T17:01:47.879Z,38.58
2022-11-29T17:04:24.354Z,40.97
2022-11-29T17:07:00.648Z,46.28
2022-11-29T17:09:34.204Z,44.35
2022-11-29T17:12:08.119Z,42.78
2022-11-29T17:14:42.879Z,40.03
2022-11-29T17:19:53.119Z,46.88
2022-11-29T17:22:24.799Z,44.10
2022-11-29T17:25:00.733Z,38.30
2022-11-29T17:27:32.388Z,44.00
2022-11-29T17:30:06.238Z,44.50
2022-11-29T17:32:38.796Z,51.53
2022-11-29T17:35:10.381Z,47.88
2022-11-29T17:37:41.954Z,46.38
2022-11-29T17:40:15.338Z,50.90
2022-11-29T17:42:48.565Z,45.28
2022-11-29T17:45:20.553Z,46.65
2022-11-29T17:47:53.758Z,51.00
2022-11-29T17:50:26.845Z,44.72
2022-11-29T17:52:58.539Z,46.80
2022-11-29T17:55:34.032Z,47.50
2022-11-29T17:58:08.152Z,44.88
2022-11-29T18:00:39.801Z,45.45
2022-11-29T18:03:11.438Z,41.67
2022-11-29T18:05:44.260Z,43.05
2022-11-29T18:08:15.865Z,43.70
2022-11-29T18:10:47.479Z,42.60
2022-11-29T18:13:19.181Z,40.72
2022-11-29T18:15:51.020Z,43.92
2022-11-29T18:18:22.913Z,43.55
2022-11-29T18:21:02.546Z,44.83
2022-11-29T18:23:37.192Z,45.92
2022-11-29T18:26:12.336Z,42.08
2022-11-29T18:28:44.781Z,42.28
2022-11-29T18:31:28.282Z,45.63
2022-11-29T18:34:02.296Z,41.40
2022-11-29T18:36:39.189Z,44.03
2022-11-29T18:39:15.014Z,41.58
2022-11-29T18:41:51.604Z,41.58
2022-11-29T18:44:29.290Z,41.88
2022-11-29T18:47:01.428Z,40.55
2022-11-29T18:49:33.165Z,44.17
2022-11-29T18:52:30.441Z,42.63
2022-11-29T18:55:02.144Z,40.35
2022-11-29T18:57:33.803Z,38.67
2022-11-29T19:00:06.141Z,40.75
2022-11-29T19:02:40.691Z,41.85
2022-11-29T19:05:14.781Z,41.13
2022-11-29T19:07:46.386Z,41.58
2022-11-29T19:10:18.379Z,39.72
2022-11-29T19:12:49.973Z,41.72
2022-11-29T19:15:22.543Z,40.15
2022-11-29T19:17:54.111Z,38.83
2022-11-29T19:20:28.572Z,39.58
2022-11-29T19:23:00.707Z,38.90
2022-11-29T19:25:34.533Z,40.85
2022-11-29T19:28:12.481Z,41.22
2022-11-29T19:30:54.252Z,37.33
2022-11-29T19:33:26.298Z,35.28
2022-11-29T19:36:14.383Z,36.72
2022-11-29T19:38:53.411Z,38.58
2022-11-29T19:41:28.853Z,43.45
2022-11-29T19:44:03.574Z,40.50
2022-11-29T19:46:43.569Z,42.00
2022-11-29T19:49:15.317Z,39.63
2022-11-29T19:51:47.739Z,40.72
2022-11-29T19:54:19.332Z,39.45
2022-11-29T19:56:50.914Z,41.28
2022-11-29T19:59:26.808Z,39.33
2022-11-29T20:01:58.481Z,38.22
2022-11-29T20:04:30.123Z,40.25
2022-11-29T20:07:03.142Z,40.67
2022-11-29T20:09:34.778Z,37.10
2022-11-29T20:12:06.448Z,38.05
2022-11-29T20:14:41.325Z,44.25
2022-11-29T20:19:51.749Z,38.67
2022-11-29T20:22:23.681Z,34.28
2022-11-29T20:24:55.843Z,39.47
2022-11-29T20:27:27.493Z,40.40
2022-11-29T20:29:59.157Z,38.17
2022-11-29T20:32:35.230Z,37.90
2022-11-29T20:35:09.467Z,37.92
2022-11-29T20:38:16.535Z,40.22
2022-11-29T20:41:08.339Z,37.88
2022-11-29T20:43:55.752Z,39.42
2022-11-29T20:46:33.050Z,41.08
2022-11-29T20:49:06.698Z,38.60
2022-11-29T20:51:56.435Z,40.40
2022-11-29T20:54:29.313Z,37.53
2022-11-29T20:57:00.876Z,34.72
2022-11-29T20:59:32.794Z,36.53
2022-11-29T21:02:04.477Z,40.92
2022-11-29T21:04:36.218Z,35.65
2022-11-29T21:07:07.771Z,35.70
2022-11-29T21:09:39.356Z,40.90
2022-11-29T21:12:11.757Z,33.20
2022-11-29T21:14:47.308Z,35.60
2022-11-29T21:17:20.610Z,31.75
2022-11-29T21:19:54.025Z,38.75
2022-11-29T21:22:52.557Z,34.50
2022-11-29T21:26:21.622Z,34.13
2022-11-29T21:29:05.656Z,34.67
2022-11-29T21:31:37.939Z,34.23
2022-11-29T21:34:09.735Z,34.35
2022-11-29T21:36:41.928Z,35.17
2022-11-29T21:39:18.624Z,32.60
2022-11-29T21:41:55.953Z,36.13
2022-11-29T21:44:27.657Z,34.40
2022-11-29T21:46:59.388Z,34.20
2022-11-29T21:49:31.352Z,34.63
2022-11-29T21:52:03.327Z,35.03
2022-11-29T21:54:34.992Z,29.17
2022-11-29T21:57:06.676Z,30.80
2022-11-29T21:59:38.561Z,32.78
2022-11-29T22:02:10.339Z,32.58
2022-11-29T22:04:42.088Z,35.67
2022-11-29T22:07:14.741Z,31.58
2022-11-29T22:09:46.723Z,34.45
2022-11-29T22:12:35.164Z,36.38
2022-11-29T22:15:11.292Z,32.75
2022-11-29T22:17:44.396Z,34.75
2022-11-29T22:20:17.351Z,33.05
2022-11-29T22:22:49.076Z,36.95
2022-11-29T22:25:20.657Z,34.05
2022-11-29T22:27:54.298Z,35.38
2022-11-29T22:30:26.972Z,37.20
2022-11-29T22:32:59.149Z,35.78
2022-11-29T22:35:32.741Z,33.93
2022-11-29T22:38:04.396Z,34.53
2022-11-29T22:40:38.153Z,33.47
2022-11-29T22:43:09.945Z,33.20
2022-11-29T22:45:43.554Z,33.20
2022-11-29T22:48:15.183Z,34.45
2022-11-29T22:50:47.118Z,36.40
2022-11-29T22:53:22.641Z,32.78
2022-11-29T22:55:59.374Z,33.72
2022-11-29T22:58:31.652Z,33.13
2022-11-29T23:01:10.543Z,36.60
2022-11-29T23:03:45.117Z,36.83
2022-11-29T23:06:19.797Z,37.67
2022-11-29T23:08:53.750Z,34.63
2022-11-29T23:11:28.053Z,35.30
2022-11-29T23:14:01.408Z,36.60
2022-11-29T23:16:35.821Z,34.00
2022-11-29T23:19:08.130Z,31.30
2022-11-29T23:21:41.162Z,32.17
2022-11-29T23:24:15.158Z,33.70
2022-11-29T23:26:48.038Z,34.72
2022-11-29T23:29:20.034Z,38.03
2022-11-29T23:31:52.658Z,33.60
2022-11-29T23:34:26.604Z,32.75
2022-11-29T23:36:58.183Z,31.63
2022-11-29T23:39:29.801Z,34.42
2022-11-29T23:42:01.394Z,33.10
2022-11-29T23:44:33.273Z,36.17
2022-11-29T23:47:05.908Z,35.88
2022-11-29T23:49:39.834Z,34.10
2022-11-29T23:52:18.638Z,34.23
2022-11-29T23:54:51.313Z,32.55
2022-11-29T23:57:22.905Z,36.40
2022-11-29T23:59:54.699Z,41.35
